x

New Dungeness - 17 Nm Ne Of Port Angeles, Wa (46088) Wave Buoy

10:20 - Tue 17th Jan 2017 All times are PST. -8 hours from GMT.

  • Sig Wave height 4.3ft
  • Swell Direction
  • Peak Period 6s
  • Average Period 5s
  • Wind
    11mph, 16mph gusts
  • Sea Temp 46°f
  • Aire Temp 48°f
  • Sea Pressure 1001.8mb
  • New Dungeness - 17 Nm Ne Of Port Angeles, Wa
  • New Dungeness - 17 Nm Ne Of Port Angeles, Wa

More Historic Weather Station data

Upgrade to MSW Pro to gain access to the past 30 days of data for over 8000 Wavebouys and Weather Stations around the globe.

Join Pro

Comparision Forecast

View Surf forecast
   
mar 01/17 10:20 4.5ft 6s 5s 11 16 mph 1001.8mb 46f 48f
9:50 5ft 6s 5s 7
mph
1002mb 46f 47f
9:20 5ft 6s 5s 18 22 mph 1001.1mb 46f 49f
8:50 5ft 6s 5s 22 27 mph 1000.9mb 46f 49f
8:20 4ft 5s 5s 20 25 mph 1001.5mb 46f 49f
7:50 3.5ft 5s 4s 29 36 mph 1000.9mb 46f 49f
7:20 2.5ft 4s 4s 27 34 mph 1001.7mb 46f 48f
6:50 1.3ft 4s 3s 27 34 mph 1002.3mb 46f 48f
6:20 0.7ft  -  3s 18 25 mph 1003.2mb 46f 47f
5:20 0.7ft  -  3s 9 11 mph 1005.1mb 46f 46f
4:50 0.7ft  -  3s 4 9 mph 1006.3mb 46f 45f
4:20 0.7ft  -  3s 11 13 mph 1006.1mb 46f 45f
3:50 0.7ft  -  3s 7 11 mph 1007.5mb 46f 46f
3:20 0.7ft  -  3s 7
mph
1008.6mb 46f 46f
2:50 1ft 3s 3s 2 4 mph 1009mb 46f 46f
2:20 1ft 3s 3s  -  4 mph 1009.2mb 46f 46f
1:50 1.3ft 3s 3s 2 4 mph 1009.1mb 46f 46f
1:20 1.3ft 3s 3s 7 9 mph 1009.2mb 46f 46f
12:50 1.3ft 3s 3s 4
mph
1009.3mb 46f 47f
12:20 1ft 3s 3s 2 4 mph 1009.5mb 46f 47f
lun 01/16 11:50 0.3ft  -  3s 2 4 mph 1009.9mb 46f 47f
11:20 0.7ft  -  3s 7
mph
1010.3mb 46f 46f
10:50 0.7ft  -  3s 4 7 mph 1010.8mb 46f 45f
10:20 0.7ft  -  3s 4 7 mph 1011.3mb 46f 45f
9:50 0.7ft  -  3s 9 11 mph 1011.8mb 46f 44f
9:20 0.7ft  -  3s 9
mph
1012.3mb 46f 45f
8:50 0.7ft  -  3s 9 11 mph 1012.7mb 46f 46f
8:20 0.7ft  -  3s 13
mph
1012.8mb 46f 45f
7:50 1ft 3s 3s 11 13 mph 1013mb 46f 45f
7:20 1ft 3s 3s 13
mph
1013.3mb 46f 44f
6:50 0.7ft  -  3s 18 20 mph 1013.8mb 46f 44f
6:20 0.3ft  -  3s 18 20 mph 1013.8mb 46f 44f
5:50 0.7ft  -  4s 4
mph
1014.2mb 46f 44f
5:20 0.7ft  -  3s 2
mph
1013.8mb 46f 44f
4:50 0.7ft  -  3s 11
mph
1013.1mb 46f 45f
4:20 0.7ft  -  3s 7 9 mph 1013.6mb 46f 45f
3:50 1ft 3s 3s 2
mph
1014.8mb 46f 44f
3:20 1ft 3s 3s 2
mph
1014.7mb 46f 44f
2:50 1.3ft 3s 3s 2
mph
1015mb 46f 44f
2:20 1.3ft 3s 3s 4 7 mph 1015.5mb 46f 44f
1:50 1.3ft 3s 3s 11 13 mph 1015.9mb 46f 44f
1:20 1.6ft 3s 3s 16 18 mph 1016.8mb 46f 44f
12:50 1.6ft 3s 3s 16 20 mph 1017.5mb 46f 44f
12:20 1.6ft 4s 3s 18 20 mph 1018.1mb 46f 43f
11:50 2ft 4s 3s 16 18 mph 1018.8mb 46f 42f
11:20 2ft 3s 3s 16 18 mph 1019.5mb 46f 41f
10:50 2ft 3s 3s 16 22 mph 1019.9mb 46f 42f
10:20 1.3ft 3s 3s 18 22 mph 1019.7mb 46f 42f
9:50 1.3ft 3s 3s 16 20 mph 1020.2mb 46f 41f
9:20 1.3ft 3s 3s 13 16 mph 1020.7mb 46f 41f
8:50 1.3ft 3s 3s 16 18 mph 1020.5mb 46f 41f
8:20 1ft 3s 3s 13 16 mph 1020.8mb 46f 42f
7:50 1ft 3s 3s 11 16 mph 1021.3mb 46f 41f
7:20 0.7ft  -  3s 11 13 mph 1021.4mb 46f 42f
6:50 0.7ft  -  3s 9 11 mph 1021.6mb 46f 42f
6:20 0.7ft  -  3s 9 11 mph 1022.2mb 46f 42f
5:50 0.7ft  -  3s 9 11 mph 1022.4mb 46f 42f
5:20 0.7ft  -  3s 7 9 mph 1022.6mb 46f 42f
4:50 0.7ft  -  3s 9
mph
1022.7mb 46f 42f
4:20 0.7ft  -  3s 9 11 mph 1023mb 46f 42f
3:50 0.7ft  -  3s 9 11 mph 1023.4mb 46f 42f
3:20 0.7ft  -  4s 13 16 mph 1023.2mb 46f 42f
2:50 0.7ft  -  6s 7 9 mph 1024.2mb 46f 42f
2:20 0.7ft  -  6s 7 9 mph 1024.3mb 45f 42f
1:50 0.7ft  -  6s 9 11 mph 1024.1mb 45f 42f
1:20 0.7ft  -  6s 9 11 mph 1024mb 45f 42f
12:50 1ft 11s 7s 9 11 mph 1024.7mb 46f 42f
12:20 0.7ft  -  6s 9 11 mph 1024.8mb 46f 42f
dom 01/15 11:50 0.7ft  -  5s 7 9 mph 1025.3mb 46f 42f
11:20 0.3ft  -  4s 7 9 mph 1025.3mb 46f 42f
10:50 0.3ft  -  4s 7 9 mph 1025.8mb 46f 42f
10:20 0.3ft  -  5s 9 11 mph 1025.4mb 46f 42f
9:50 0.3ft  -  5s 9 11 mph 1025.8mb 46f 42f
9:20 0.3ft  -  6s 7 9 mph 1025.8mb 46f 42f
8:50 0.3ft  -  4s 9 11 mph 1025.5mb 46f 42f
8:20 0.3ft  -  5s 11 13 mph 1025.1mb 46f 42f
7:50 0.3ft  -  5s 9
mph
1025.5mb 46f 42f
7:20 0.3ft  -  5s 9 11 mph 1025.3mb 46f 42f
6:50 0.3ft  -  6s 9 11 mph 1025.2mb 46f 43f
6:20 0.3ft  -  5s 9 11 mph 1024.9mb 46f 42f
5:50 0.3ft  -  6s 9 11 mph 1024.8mb 46f 42f
5:20 0.3ft  -  7s 4 7 mph 1025.1mb 46f 42f
4:50 0.3ft  -  6s 4
mph
1025.4mb 46f 41f
4:20 0.3ft  -  6s 2 4 mph 1025.5mb 46f 42f
3:50 0.3ft  -  7s  -  2 mph 1025.6mb 46f 42f
3:20 0.7ft  -  7s  -  mph 1025.6mb 46f 44f
2:50 0.3ft  -  5s 2 4 mph 1025.2mb 46f 41f
2:20 0.3ft  -  5s 2 4 mph 1025.3mb 46f 41f
1:50 0.3ft  -  5s 4
mph
1025.2mb 46f 41f
1:20 0.3ft  -  5s 2 4 mph 1025.1mb 46f 40f
12:50 0.3ft  -  4s 2 4 mph 1025.3mb 46f 40f
12:20 0.3ft  -  4s 4 7 mph 1025.5mb 46f 40f
11:50 0.3ft  -  4s 2 4 mph 1025.8mb 46f 41f
11:20 0.3ft  -  4s 4 7 mph 1026.2mb 46f 41f
10:50 0.3ft  -  4s 7 9 mph 1026.4mb 46f 40f
10:20 0.3ft  -  4s 7 9 mph 1026.1mb 46f 40f
9:50 0.7ft  -  5s 7 11 mph 1025.8mb 46f 40f
9:20 0.3ft  -  4s 7
mph
1025.5mb 46f 40f
8:50 0.3ft  -  4s 4 7 mph 1025.2mb 46f 40f
8:20 0.3ft  -  4s 4 7 mph 1025.3mb 46f 40f
7:50 0.3ft  -  4s 4 7 mph 1025.3mb 46f 40f
7:20 0.3ft  -  4s 4 7 mph 1025.3mb 46f 40f
6:50 0.3ft  -  4s 7 9 mph 1025.3mb 46f 39f
6:20 0.3ft  -  4s 7 11 mph 1025.6mb 46f 40f
5:50 0.3ft  -  4s 7
mph
1025.7mb 46f 40f
5:20 0.3ft  -  5s 4 7 mph 1025.5mb 46f 39f
4:50 0.3ft  -  5s 4 9 mph 1025.7mb 46f 39f
4:20 0.3ft  -  5s 4 7 mph 1025.9mb 45f 39f
3:50 0.3ft  -  5s 4 7 mph 1026.1mb 45f 39f
3:20 0.7ft  -  5s 7 9 mph 1026.3mb 45f 40f
2:50 0.7ft  -  5s 7 9 mph 1026.4mb 45f 40f
2:20 0.7ft  -  5s 7 9 mph 1026mb 45f 40f
1:50 0.7ft  -  6s 9 11 mph 1026mb 45f 40f
1:20 0.7ft  -  6s 4 7 mph 1025.8mb 45f 40f
12:50 0.7ft  -  6s 2 4 mph 1025.8mb 45f 40f
12:20 0.3ft  -  6s 4
mph
1025.8mb 45f 40f
sáb 01/14 11:50 0.3ft  -  5s 7
mph
1025.7mb 45f 40f
11:20 0.3ft  -  4s 7
mph
1025.6mb 45f 39f
10:50 0.3ft  -  4s 7 9 mph 1025.5mb 46f 39f
10:20 0.3ft  -  4s 7 9 mph 1025.4mb 46f 39f
9:50 0.3ft  -  5s 4 7 mph 1025.6mb 46f 39f
9:20 0.3ft  -  5s 7 9 mph 1025.7mb 46f 39f
8:50 0.3ft  -  5s 9 11 mph 1025.7mb 46f 39f
8:20 0.3ft  -  5s 11
mph
1025.5mb 46f 39f
7:50 0.3ft  -  5s 9 11 mph 1025.4mb 46f 39f
7:20 0.3ft  -  5s 9 11 mph 1025.3mb 46f 40f
6:50 0.3ft  -  5s 9 11 mph 1025.3mb 46f 40f
6:20 0.3ft  -  5s 7 9 mph 1025.2mb 46f 40f
5:50 0.3ft  -  4s 4 7 mph 1025.3mb 46f 39f
5:20 0.3ft  -  4s 2 4 mph 1025.4mb 46f 39f
4:50 0.3ft  -  4s 7
mph
1025.4mb 46f 39f
4:20 0.3ft  -  4s 2 4 mph 1025.9mb 46f 39f
3:50 0.3ft  -  4s 2 4 mph 1026.2mb 46f 39f
3:20 0.3ft  -  3s 4
mph
1026.5mb 46f 39f
2:50 0.3ft  -  4s 2 7 mph 1026.7mb 46f 39f
2:20 0.3ft  -  3s 2 4 mph 1026.6mb 46f 39f
1:50 0.3ft  -  4s 2 4 mph 1026.9mb 46f 39f
1:20 0.7ft  -  4s 4 7 mph 1027.3mb 46f 40f
12:50 0.3ft  -  3s 4 7 mph 1027.6mb 46f 39f
12:20 0.3ft  -  3s 4 7 mph 1028.1mb 46f 38f
11:50 0.3ft  -  3s 4 7 mph 1028.5mb 46f 38f
11:20 0.3ft  -  3s 4 7 mph 1028.8mb 46f 38f
10:50 0.3ft  -  4s 7
mph
1028.9mb 46f 37f
10:20 0.3ft  -  3s 4 7 mph 1029.1mb 46f 37f
9:50 0.3ft  -  4s 7 9 mph 1029.4mb 46f 37f
9:20 0.3ft  -  3s 4 7 mph 1029.7mb 46f 37f
8:50 0.3ft  -  3s 7 9 mph 1029.5mb 46f 37f
8:20 0.7ft  -  3s 7 9 mph 1029.6mb 46f 37f
7:50 0.7ft  -  3s 11 13 mph 1029.1mb 46f 37f
7:20 0.7ft  -  3s 9 11 mph 1029.3mb 46f 37f
6:50 0.7ft  -  3s 7 9 mph 1029.7mb 46f 37f
6:20 0.7ft  -  4s 11
mph
1029.9mb 46f 37f
5:50 0.7ft  -  3s 7 11 mph 1030.4mb 46f 37f
5:20 0.7ft  -  4s 9 11 mph 1030.2mb 46f 37f
4:50 0.3ft  -  3s 7 9 mph 1030.4mb 46f 37f
4:20 0.3ft  -  3s 7 9 mph 1030.6mb 46f 37f
3:50 0.7ft  -  3s 7 9 mph 1030.8mb 45f 37f
3:20 0.7ft  -  3s 9 13 mph 1030.8mb 45f 37f
2:50 0.7ft  -  3s 9 11 mph 1030.7mb 45f 37f
2:20 0.7ft  -  3s 11 16 mph 1030.6mb 45f 37f
1:50 0.3ft  -  3s 9 11 mph 1030.7mb 46f 37f
1:20 0.3ft  -  3s 11 13 mph 1030.9mb 46f 38f
12:50 0.3ft  -  3s 11 13 mph 1030.9mb 45f 37f
12:20 0.3ft  -  4s 9 11 mph 1030.7mb 45f 37f
vie 01/13 11:50 0.3ft  -  4s 7 9 mph 1030.9mb 45f 37f
11:20 0.3ft  -  5s 7 9 mph 1030.9mb 45f 37f
10:50 0.3ft  -  5s 7 9 mph 1031.1mb 45f 37f
10:20 0.3ft  -  5s 7 9 mph 1031.1mb 45f 37f
9:50 0.3ft  -  5s 7 9 mph 1031.2mb 46f 37f
9:20 0.3ft  -  5s 9 11 mph 1031.2mb 45f 37f
8:50 0.3ft  -  4s 9 13 mph 1031.4mb 46f 37f
8:20 0.3ft  -  3s 11 13 mph 1031.2mb 46f 37f
7:50 0.3ft  -  4s 11 13 mph 1030.9mb 46f 37f
7:20 0.3ft  -  4s 4 9 mph 1030.9mb 46f 37f